This is the latest recevied weather packets stored in our database for station/object KB5SMY. If no packets are shown the sender has not sent any weather packets the latest 10 day(s).
| Time | Temp. | Humidity | Pressure | Rain* | Wind** | Luminosity | Snow |
|---|---|---|---|---|---|---|---|
| 1777797004 | 11.67° C | 83% | 1019.9 hPa | 0 mm | - | 0 W/m² | - |
| 1777793404 | 12.78° C | 79% | 1020.2 hPa | 0 mm | - | 0 W/m² | - |
| 1777784405 | 14.44° C | 72% | 1020.1 hPa | 0 mm | - | 0 W/m² | - |
| 1777777805 | 16.11° C | 65% | 1019.8 hPa | 0 mm | - | 0 W/m² | - |
| 1777777204 | 16.67° C | 65% | 1019.8 hPa | 0 mm | - | 0 W/m² | - |
| 1777772405 | 20.56° C | 50% | 1019.1 hPa | 0 mm | - | 0 W/m² | - |
| 1777771205 | 21.67° C | 43% | 1018.9 hPa | 0 mm | - | 0 W/m² | - |
| 1777770605 | 22.22° C | 42% | 1018.9 hPa | 0 mm | - | 7 W/m² | - |
| 1777768931 | 23.89° C | 37% | 1019 hPa | 0 mm | - | 25 W/m² | - |
| 1777764004 | 25° C | 34% | 1018.9 hPa | 0 mm | - | 366 W/m² | - |
| 1777763404 | 25° C | 34% | 1019 hPa | 0 mm | - | 404 W/m² | - |
| 1777761604 | 25.56° C | 34% | 1019 hPa | 0 mm | - | 524 W/m² | - |
| 1777760404 | 25.56° C | 34% | 1019.2 hPa | 0 mm | - | 594 W/m² | - |
| 1777759204 | 25° C | 38% | 1019.3 hPa | 0 mm | - | 659 W/m² | - |
| 1777758131 | 25° C | 39% | 1019.5 hPa | 0 mm | - | 737 W/m² | - |
| 1777756804 | 25.56° C | 37% | 1019.6 hPa | 0 mm | - | 810 W/m² | - |
| 1777756204 | 25° C | 37% | 1019.9 hPa | 0 mm | - | 816 W/m² | - |
| 1777751405 | 23.89° C | 39% | 1020.6 hPa | 0 mm | - | 958 W/m² | - |
| 1777747210 | 22.78° C | 46% | 1021.3 hPa | 0 mm | - | 1011 W/m² | - |
| 1777746004 | 22.78° C | 43% | 1021.7 hPa | 0 mm | - | 1000 W/m² | - |
| 1777743604 | 22.22° C | 43% | 1022.2 hPa | 0 mm | - | 979 W/m² | - |
| 1777743005 | 22.78° C | 44% | 1022.4 hPa | 0 mm | - | 969 W/m² | - |
| 1777741805 | 21.67° C | 45% | 1022.5 hPa | 0 mm | - | 944 W/m² | - |
| 1777740005 | 21.11° C | 54% | 1022.7 hPa | 0 mm | - | 888 W/m² | - |
| 1777738932 | 20° C | 60% | 1022.6 hPa | 0 mm | - | 840 W/m² | - |
* Rain latest hour (hover to see other rain measurements)
** Current wind speed in m/s (hover to see current wind gust speed)